createdAt,value
2019-06-26T00:01:09.629Z,22.78
2019-06-26T00:03:39.700Z,22.75
2019-06-26T00:06:09.622Z,22.71
2019-06-26T00:08:39.689Z,22.70
2019-06-26T00:11:09.906Z,22.71
2019-06-26T00:13:39.892Z,22.67
2019-06-26T00:16:09.958Z,22.61
2019-06-26T00:18:39.695Z,22.56
2019-06-26T00:21:09.537Z,22.54
2019-06-26T00:23:39.567Z,22.52
2019-06-26T00:26:09.508Z,22.51
2019-06-26T00:28:39.382Z,22.48
2019-06-26T00:31:09.043Z,22.44
2019-06-26T00:33:39.272Z,22.39
2019-06-26T00:36:09.157Z,22.33
2019-06-26T00:38:40.160Z,22.30
2019-06-26T00:41:10.147Z,22.27
2019-06-26T00:43:42.649Z,22.25
2019-06-26T00:46:16.208Z,22.23
2019-06-26T00:48:48.036Z,22.19
2019-06-26T00:51:19.866Z,22.19
2019-06-26T00:53:50.939Z,22.13
2019-06-26T00:56:22.568Z,22.08
2019-06-26T00:59:14.584Z,22.12
2019-06-26T01:01:44.609Z,22.10
2019-06-26T01:04:25.798Z,22.07
2019-06-26T01:07:00.081Z,21.98
2019-06-26T01:09:31.622Z,22.02
2019-06-26T01:12:03.472Z,21.99
2019-06-26T01:14:40.704Z,21.93
2019-06-26T01:17:12.900Z,21.93
2019-06-26T01:19:44.166Z,21.85
2019-06-26T01:22:16.372Z,21.83
2019-06-26T01:25:47.373Z,21.79
2019-06-26T01:28:18.236Z,21.80
2019-06-26T01:30:49.068Z,21.77
2019-06-26T01:33:19.141Z,21.66
2019-06-26T01:35:49.560Z,21.59
2019-06-26T01:38:19.739Z,21.61
2019-06-26T01:40:52.538Z,21.64
2019-06-26T01:43:24.642Z,21.65
2019-06-26T01:45:54.953Z,21.59
2019-06-26T01:48:27.551Z,21.61
2019-06-26T01:50:57.617Z,21.59
2019-06-26T01:53:38.890Z,21.50
2019-06-26T01:56:10.408Z,21.48
2019-06-26T01:58:41.729Z,21.42
2019-06-26T02:01:14.027Z,21.36
2019-06-26T02:03:47.906Z,21.32
2019-06-26T02:06:19.947Z,21.27
2019-06-26T02:08:52.527Z,21.23
2019-06-26T02:11:24.106Z,21.26
2019-06-26T02:13:56.982Z,21.27
2019-06-26T02:16:28.738Z,21.26
2019-06-26T02:19:06.771Z,21.25
2019-06-26T02:21:38.605Z,21.19
2019-06-26T02:24:11.659Z,21.23
2019-06-26T02:26:45.908Z,21.18
2019-06-26T02:29:16.361Z,21.17
2019-06-26T02:32:10.076Z,21.16
2019-06-26T02:35:02.431Z,21.16
2019-06-26T02:37:43.889Z,21.11
2019-06-26T02:40:31.062Z,21.06
2019-06-26T02:46:21.465Z,21.10
2019-06-26T02:49:35.110Z,21.05
2019-06-26T02:52:08.078Z,21.06
2019-06-26T02:54:39.358Z,21.07
2019-06-26T02:57:09.246Z,21.03
2019-06-26T02:59:42.779Z,20.94
2019-06-26T03:02:13.432Z,20.91
2019-06-26T03:04:44.816Z,20.90
2019-06-26T03:07:25.451Z,20.92
2019-06-26T03:09:56.700Z,20.92
2019-06-26T03:12:26.903Z,20.91
2019-06-26T03:15:09.262Z,20.92
2019-06-26T03:17:54.168Z,20.94
2019-06-26T03:20:26.581Z,20.92
2019-06-26T03:22:58.306Z,20.91
2019-06-26T03:25:30.480Z,20.90
2019-06-26T03:28:01.541Z,20.92
2019-06-26T03:30:32.177Z,20.95
2019-06-26T03:33:06.760Z,20.99
2019-06-26T03:35:40.955Z,21.02
2019-06-26T03:38:12.747Z,21.04
2019-06-26T03:40:43.301Z,21.03
2019-06-26T03:43:15.908Z,20.98
2019-06-26T03:45:58.294Z,20.92
2019-06-26T03:48:27.886Z,20.88
2019-06-26T03:51:05.045Z,20.93
2019-06-26T03:53:39.489Z,20.96
2019-06-26T03:56:11.457Z,21.00
2019-06-26T03:58:45.154Z,21.04
2019-06-26T04:01:18.331Z,21.06
2019-06-26T04:03:51.630Z,21.02
2019-06-26T04:06:24.428Z,21.06
2019-06-26T04:09:09.877Z,21.04
2019-06-26T04:11:43.733Z,20.97
2019-06-26T04:14:15.428Z,20.95
2019-06-26T04:16:48.183Z,20.95
2019-06-26T04:19:18.857Z,20.95
2019-06-26T04:21:50.219Z,20.92
2019-06-26T04:24:22.236Z,20.86
2019-06-26T04:26:55.376Z,20.84
2019-06-26T04:29:26.574Z,20.81
2019-06-26T04:31:57.073Z,20.79
2019-06-26T04:34:30.068Z,20.81
2019-06-26T04:37:05.256Z,20.82
2019-06-26T04:39:41.202Z,20.82
2019-06-26T04:42:11.267Z,20.82
2019-06-26T04:44:45.610Z,20.83
2019-06-26T04:47:20.012Z,20.92
2019-06-26T04:49:51.665Z,21.01
2019-06-26T04:52:23.966Z,20.98
2019-06-26T04:54:57.256Z,20.77
2019-06-26T04:57:28.626Z,21.01
2019-06-26T05:00:02.866Z,21.02
2019-06-26T05:02:52.517Z,21.05
2019-06-26T05:05:39.375Z,21.12
2019-06-26T05:08:07.531Z,21.13
2019-06-26T05:10:37.937Z,21.17
2019-06-26T05:13:11.745Z,21.20
2019-06-26T05:15:56.041Z,21.28
2019-06-26T05:21:25.898Z,21.34
2019-06-26T05:24:03.425Z,21.40
2019-06-26T05:26:43.118Z,21.45
2019-06-26T05:29:21.814Z,21.46
2019-06-26T05:31:53.089Z,21.52
2019-06-26T05:34:24.562Z,21.57
2019-06-26T05:37:08.724Z,21.63
2019-06-26T05:39:42.690Z,21.75
2019-06-26T05:42:22.641Z,21.84
2019-06-26T05:45:00.252Z,21.93
2019-06-26T05:47:50.026Z,21.63
2019-06-26T05:50:22.010Z,21.71
2019-06-26T05:52:54.804Z,21.70
2019-06-26T05:55:26.786Z,21.72
2019-06-26T05:57:59.431Z,21.78
2019-06-26T06:00:45.775Z,21.77
2019-06-26T06:03:18.852Z,21.70
2019-06-26T06:05:49.699Z,21.80
2019-06-26T06:08:27.956Z,21.83
2019-06-26T06:11:04.837Z,21.87
2019-06-26T06:13:42.043Z,21.98
2019-06-26T06:16:17.674Z,22.10
2019-06-26T06:18:51.340Z,22.09
2019-06-26T06:21:22.722Z,22.10
2019-06-26T06:24:02.010Z,22.12
2019-06-26T06:26:35.761Z,22.14
2019-06-26T06:29:07.504Z,22.21
2019-06-26T06:31:40.860Z,22.26
2019-06-26T06:34:14.580Z,22.25
2019-06-26T06:36:51.125Z,22.29
2019-06-26T06:39:29.115Z,22.40
2019-06-26T06:42:02.314Z,22.42
2019-06-26T06:44:35.630Z,22.43
2019-06-26T06:47:13.667Z,22.34
2019-06-26T06:49:48.196Z,22.34
2019-06-26T06:52:19.146Z,22.35
2019-06-26T06:55:05.918Z,22.34
2019-06-26T07:00:36.726Z,22.41
2019-06-26T07:03:31.546Z,22.30
2019-06-26T07:06:05.324Z,22.34
2019-06-26T07:08:42.142Z,22.43
2019-06-26T07:11:16.818Z,22.43
2019-06-26T07:13:48.315Z,22.47
2019-06-26T07:16:28.898Z,22.64
2019-06-26T07:19:01.260Z,22.67
2019-06-26T07:21:35.241Z,22.78
2019-06-26T07:24:06.945Z,22.85
2019-06-26T07:27:10.856Z,22.89
2019-06-26T07:29:45.885Z,22.90
2019-06-26T07:32:17.641Z,23.07
2019-06-26T07:34:51.282Z,23.27
2019-06-26T07:37:23.677Z,23.26
2019-06-26T07:40:04.382Z,23.24
2019-06-26T07:42:36.329Z,23.51
2019-06-26T07:45:10.252Z,24.44
2019-06-26T07:47:44.341Z,24.80
2019-06-26T07:50:25.461Z,25.03
2019-06-26T07:52:57.846Z,25.35
2019-06-26T07:55:29.629Z,25.73
2019-06-26T07:58:00.122Z,25.99
2019-06-26T08:00:32.417Z,25.96
2019-06-26T08:03:04.536Z,26.23
2019-06-26T08:05:55.607Z,25.93
2019-06-26T08:08:25.621Z,25.61
2019-06-26T08:10:57.390Z,25.44
2019-06-26T08:13:34.290Z,25.47
2019-06-26T08:16:06.380Z,25.44
2019-06-26T08:18:45.587Z,25.40
2019-06-26T08:21:18.266Z,25.47
2019-06-26T08:23:49.050Z,25.45
2019-06-26T08:29:10.665Z,25.53
2019-06-26T08:31:43.140Z,25.59
2019-06-26T08:34:15.244Z,25.36
2019-06-26T08:36:45.746Z,25.26
2019-06-26T08:39:26.656Z,25.35
2019-06-26T08:41:59.396Z,25.53
2019-06-26T08:44:31.469Z,25.55
2019-06-26T08:47:03.421Z,25.52
2019-06-26T08:49:44.546Z,25.54
2019-06-26T08:52:15.622Z,25.51
2019-06-26T08:54:45.409Z,25.53
2019-06-26T08:57:27.660Z,25.42
2019-06-26T08:59:59.392Z,25.35
2019-06-26T09:02:34.264Z,25.33
2019-06-26T09:05:13.680Z,25.42
2019-06-26T09:07:43.825Z,25.35
2019-06-26T09:10:14.554Z,25.37
2019-06-26T09:12:46.445Z,25.47
2019-06-26T09:15:22.172Z,25.37
2019-06-26T09:18:06.062Z,25.33
2019-06-26T09:20:40.054Z,25.48
2019-06-26T09:23:09.883Z,25.35
2019-06-26T09:25:41.752Z,25.32
2019-06-26T09:28:14.146Z,25.32
2019-06-26T09:30:43.841Z,25.06
2019-06-26T09:33:13.461Z,24.92
2019-06-26T09:35:43.194Z,24.88
2019-06-26T09:38:12.856Z,25.08
2019-06-26T09:40:42.590Z,25.26
2019-06-26T09:43:12.478Z,25.37
2019-06-26T09:45:42.226Z,25.17
2019-06-26T09:48:11.883Z,25.33
2019-06-26T09:50:41.690Z,25.51
2019-06-26T09:53:11.550Z,25.49
2019-06-26T09:55:41.153Z,25.50
2019-06-26T09:58:13.382Z,25.48
2019-06-26T10:00:42.299Z,25.47
2019-06-26T10:03:12.042Z,25.61
2019-06-26T10:05:42.200Z,25.71
2019-06-26T10:08:14.314Z,25.59
2019-06-26T10:10:43.996Z,25.63
2019-06-26T10:13:14.089Z,25.80
2019-06-26T10:15:43.843Z,25.72
2019-06-26T10:18:13.642Z,25.67
2019-06-26T10:20:43.350Z,25.79
2019-06-26T10:23:13.154Z,25.96
2019-06-26T10:25:42.793Z,26.00
2019-06-26T10:28:12.528Z,26.01
2019-06-26T10:30:42.314Z,26.03
2019-06-26T10:33:12.130Z,26.02
2019-06-26T10:35:41.984Z,26.07
2019-06-26T10:38:11.595Z,26.16
2019-06-26T10:40:41.315Z,26.06
2019-06-26T10:43:11.086Z,26.22
2019-06-26T10:45:43.193Z,26.13
2019-06-26T10:48:12.870Z,25.92
2019-06-26T10:50:49.930Z,25.96
2019-06-26T10:53:14.086Z,26.09
2019-06-26T10:55:43.891Z,26.04
2019-06-26T10:58:13.712Z,25.97
2019-06-26T11:00:43.717Z,26.13
2019-06-26T11:03:13.454Z,26.13
2019-06-26T11:05:43.414Z,26.25
2019-06-26T11:08:13.069Z,26.25
2019-06-26T11:10:42.737Z,26.17
2019-06-26T11:13:12.551Z,26.01
2019-06-26T11:15:42.318Z,26.14
2019-06-26T11:18:12.273Z,26.35
2019-06-26T11:20:42.065Z,26.38
2019-06-26T11:23:12.793Z,26.24
2019-06-26T11:25:44.475Z,26.11
2019-06-26T11:28:14.172Z,26.03
2019-06-26T11:30:44.200Z,26.07
2019-06-26T11:33:13.872Z,26.10
2019-06-26T11:35:43.694Z,26.19
2019-06-26T11:38:13.336Z,26.15
2019-06-26T11:40:42.897Z,26.25
2019-06-26T11:43:12.811Z,26.24
2019-06-26T11:45:42.745Z,26.11
2019-06-26T11:48:12.708Z,26.14
2019-06-26T11:50:42.579Z,26.17
2019-06-26T11:53:12.263Z,26.01
2019-06-26T11:55:41.828Z,26.10
2019-06-26T11:58:11.780Z,26.10
2019-06-26T12:00:41.859Z,25.88
2019-06-26T12:03:13.334Z,25.71
2019-06-26T12:05:43.439Z,25.64
2019-06-26T12:08:13.264Z,25.84
2019-06-26T12:10:42.920Z,26.14
2019-06-26T12:13:12.839Z,26.36
2019-06-26T12:15:42.450Z,26.34
2019-06-26T12:18:12.314Z,26.24
2019-06-26T12:20:42.148Z,26.11
2019-06-26T12:23:11.722Z,26.13
2019-06-26T12:25:41.972Z,26.11
2019-06-26T12:28:11.900Z,25.80
2019-06-26T12:30:41.631Z,25.84
2019-06-26T12:33:11.433Z,25.62
2019-06-26T12:35:41.223Z,25.68
2019-06-26T12:38:15.087Z,25.66
2019-06-26T12:40:59.734Z,25.42
2019-06-26T12:43:32.708Z,25.50
2019-06-26T12:46:05.273Z,25.61
2019-06-26T12:48:45.052Z,25.73
2019-06-26T12:51:20.436Z,25.63
2019-06-26T12:53:50.649Z,24.78
2019-06-26T12:56:29.893Z,25.50
2019-06-26T12:59:01.964Z,25.66
2019-06-26T13:01:42.419Z,25.80
2019-06-26T13:04:26.576Z,26.14
2019-06-26T13:07:02.888Z,26.10
2019-06-26T13:09:36.099Z,25.75
2019-06-26T13:12:18.475Z,22.09
2019-06-26T13:14:58.760Z,25.59
2019-06-26T13:17:36.896Z,25.48
2019-06-26T13:20:11.576Z,25.47
2019-06-26T13:22:51.361Z,25.36
2019-06-26T13:25:28.655Z,24.95
2019-06-26T13:27:59.931Z,25.14
2019-06-26T13:30:39.314Z,25.34
2019-06-26T13:33:11.599Z,25.38
2019-06-26T13:35:46.545Z,25.14
2019-06-26T13:38:21.033Z,25.10
2019-06-26T13:40:57.492Z,25.08
2019-06-26T13:46:22.612Z,24.94
2019-06-26T13:48:56.297Z,25.14
2019-06-26T13:51:28.145Z,25.04
2019-06-26T13:54:00.794Z,24.44
2019-06-26T13:56:32.262Z,24.37
2019-06-26T13:59:07.525Z,24.58
2019-06-26T14:01:45.083Z,24.64
2019-06-26T14:04:15.633Z,24.43
2019-06-26T14:06:47.645Z,24.41
2019-06-26T14:09:22.741Z,24.39
2019-06-26T14:11:57.142Z,24.24
2019-06-26T14:14:40.895Z,24.49
2019-06-26T14:17:05.351Z,24.45
2019-06-26T14:19:43.564Z,24.42
2019-06-26T14:22:26.006Z,24.50
2019-06-26T14:24:56.232Z,24.09
2019-06-26T14:27:28.957Z,24.07
2019-06-26T14:30:01.392Z,24.23
2019-06-26T14:32:37.647Z,24.02
2019-06-26T14:35:09.773Z,24.41
2019-06-26T14:37:40.445Z,24.02
2019-06-26T14:40:15.443Z,23.73
2019-06-26T14:42:46.752Z,23.52
2019-06-26T14:45:20.203Z,23.82
2019-06-26T14:47:50.972Z,23.57
2019-06-26T14:50:23.700Z,23.56
2019-06-26T14:52:55.807Z,23.49
2019-06-26T14:55:30.624Z,23.11
2019-06-26T14:58:06.830Z,23.04
2019-06-26T15:00:44.042Z,22.87
2019-06-26T15:03:16.084Z,22.47
2019-06-26T15:05:46.338Z,22.47
2019-06-26T15:08:20.693Z,22.49
2019-06-26T15:10:55.853Z,22.81
2019-06-26T15:13:30.749Z,22.98
2019-06-26T15:16:08.621Z,22.52
2019-06-26T15:18:38.663Z,22.39
2019-06-26T15:21:14.024Z,22.64
2019-06-26T15:23:46.225Z,22.44
2019-06-26T15:26:17.431Z,22.14
2019-06-26T15:28:48.907Z,22.26
2019-06-26T15:31:22.394Z,22.27
2019-06-26T15:33:52.057Z,22.11
2019-06-26T15:36:24.809Z,22.20
2019-06-26T15:38:59.328Z,21.99
2019-06-26T15:41:34.845Z,21.58
2019-06-26T15:44:06.755Z,21.41
2019-06-26T15:46:38.951Z,21.23
2019-06-26T15:49:09.033Z,21.19
2019-06-26T15:51:41.636Z,21.57
2019-06-26T15:54:13.177Z,21.56
2019-06-26T15:56:42.967Z,21.42
2019-06-26T15:59:12.783Z,21.39
2019-06-26T16:01:42.417Z,21.26
2019-06-26T16:04:12.386Z,21.59
2019-06-26T16:06:42.196Z,21.76
2019-06-26T16:09:12.071Z,21.80
2019-06-26T16:11:41.733Z,21.80
2019-06-26T16:14:11.367Z,21.78
2019-06-26T16:16:42.986Z,21.61
2019-06-26T16:19:15.587Z,21.60
2019-06-26T16:21:45.296Z,21.61
2019-06-26T16:24:14.923Z,21.29
2019-06-26T16:26:44.730Z,20.97
2019-06-26T16:29:14.446Z,21.01
2019-06-26T16:31:44.116Z,21.08
2019-06-26T16:34:13.696Z,20.91
2019-06-26T16:36:43.467Z,21.04
2019-06-26T16:39:13.451Z,20.66
2019-06-26T16:41:43.153Z,20.93
2019-06-26T16:44:12.857Z,20.60
2019-06-26T16:46:42.423Z,20.35
2019-06-26T16:49:12.287Z,20.52
2019-06-26T16:51:42.087Z,20.50
2019-06-26T16:54:11.689Z,20.36
2019-06-26T16:56:41.502Z,20.13
2019-06-26T16:59:11.227Z,20.15
2019-06-26T17:01:40.920Z,20.15
2019-06-26T17:04:10.495Z,20.26
2019-06-26T17:06:40.285Z,20.10
2019-06-26T17:09:09.880Z,20.08
2019-06-26T17:11:39.713Z,20.32
2019-06-26T17:14:09.346Z,20.26
2019-06-26T17:16:39.099Z,20.11
2019-06-26T17:19:08.876Z,19.85
2019-06-26T17:21:38.688Z,19.94
2019-06-26T17:24:08.329Z,19.90
2019-06-26T17:26:38.096Z,20.12
2019-06-26T17:29:07.752Z,20.36
2019-06-26T17:31:37.344Z,20.19
2019-06-26T17:34:07.099Z,20.18
2019-06-26T17:36:36.857Z,20.21
2019-06-26T17:39:07.474Z,20.42
2019-06-26T17:41:37.293Z,19.96
2019-06-26T17:44:07.028Z,20.22
2019-06-26T17:46:36.607Z,20.20
2019-06-26T17:49:06.432Z,20.26
2019-06-26T17:51:36.258Z,19.44
2019-06-26T17:54:05.832Z,20.33
2019-06-26T17:56:35.822Z,20.44
2019-06-26T17:59:05.951Z,20.44
2019-06-26T18:01:35.841Z,20.25
2019-06-26T18:04:06.140Z,20.17
2019-06-26T18:06:35.855Z,20.21
2019-06-26T18:09:09.961Z,20.16
2019-06-26T18:11:39.464Z,20.16
2019-06-26T18:14:09.478Z,20.34
2019-06-26T18:16:39.055Z,20.13
2019-06-26T18:19:08.868Z,20.08
2019-06-26T18:21:38.725Z,20.01
2019-06-26T18:24:08.327Z,19.96
2019-06-26T18:26:38.023Z,20.00
2019-06-26T18:29:07.873Z,19.79
2019-06-26T18:31:37.911Z,19.84
2019-06-26T18:34:07.685Z,20.04
2019-06-26T18:36:37.441Z,20.09
2019-06-26T18:39:08.691Z,20.08
2019-06-26T18:41:38.464Z,19.95
2019-06-26T18:44:07.973Z,19.90
2019-06-26T18:46:37.671Z,19.74
2019-06-26T18:49:09.894Z,19.62
2019-06-26T18:51:48.371Z,19.53
2019-06-26T18:57:14.441Z,19.53
2019-06-26T18:59:46.484Z,19.53
2019-06-26T19:02:16.612Z,19.57
2019-06-26T19:04:47.801Z,19.54
2019-06-26T19:07:20.008Z,19.51
2019-06-26T19:09:53.368Z,19.56
2019-06-26T19:12:24.045Z,19.56
2019-06-26T19:14:56.728Z,19.60
2019-06-26T19:17:28.025Z,19.55
2019-06-26T19:19:59.746Z,19.56
2019-06-26T19:22:31.524Z,19.62
2019-06-26T19:25:21.283Z,19.69
2019-06-26T19:27:51.392Z,19.61
2019-06-26T19:30:23.010Z,19.57
2019-06-26T19:32:52.956Z,19.65
2019-06-26T19:35:22.590Z,19.72
2019-06-26T19:37:52.525Z,19.65
2019-06-26T19:40:24.182Z,19.65
2019-06-26T19:42:54.308Z,19.73
2019-06-26T19:45:24.346Z,19.75
2019-06-26T19:47:53.977Z,19.79
2019-06-26T19:50:24.258Z,19.85
2019-06-26T19:52:53.872Z,19.77
2019-06-26T19:55:23.388Z,19.72
2019-06-26T19:57:55.319Z,19.57
2019-06-26T20:00:25.224Z,19.54
2019-06-26T20:02:54.894Z,19.47
2019-06-26T20:05:24.897Z,19.48
2019-06-26T20:07:54.522Z,19.38
2019-06-26T20:10:24.361Z,19.43
2019-06-26T20:12:54.516Z,19.52
2019-06-26T20:15:24.313Z,19.52
2019-06-26T20:17:56.533Z,19.50
2019-06-26T20:20:26.420Z,19.55
2019-06-26T20:22:56.271Z,19.57
2019-06-26T20:25:26.023Z,19.63
2019-06-26T20:27:57.983Z,19.59
2019-06-26T20:30:30.617Z,19.56
2019-06-26T20:33:03.696Z,19.55
2019-06-26T20:35:33.614Z,19.60
2019-06-26T20:38:03.383Z,19.26
2019-06-26T20:40:33.720Z,19.34
2019-06-26T20:43:03.812Z,19.37
2019-06-26T20:45:34.929Z,19.37
2019-06-26T20:48:04.775Z,19.32
2019-06-26T20:50:34.684Z,19.35
2019-06-26T20:53:04.795Z,19.38
2019-06-26T20:55:34.698Z,19.34
2019-06-26T20:58:04.665Z,19.34
2019-06-26T21:00:34.654Z,19.33
2019-06-26T21:03:04.759Z,19.44
2019-06-26T21:05:34.683Z,18.56
2019-06-26T21:08:08.937Z,19.43
2019-06-26T21:10:38.511Z,19.42
2019-06-26T21:13:08.620Z,19.44
2019-06-26T21:15:38.434Z,19.37
2019-06-26T21:18:08.141Z,19.11
2019-06-26T21:20:37.807Z,19.12
2019-06-26T21:23:17.822Z,19.14
2019-06-26T21:25:38.844Z,19.17
2019-06-26T21:28:08.978Z,19.12
2019-06-26T21:30:38.678Z,19.16
2019-06-26T21:33:08.323Z,19.13
2019-06-26T21:35:38.196Z,19.12
2019-06-26T21:38:07.820Z,19.07
2019-06-26T21:40:37.375Z,19.12
2019-06-26T21:43:07.314Z,19.08
2019-06-26T21:45:36.965Z,19.00
2019-06-26T21:48:06.507Z,18.98
2019-06-26T21:50:36.563Z,18.93
2019-06-26T21:53:06.160Z,18.94
2019-06-26T21:55:35.915Z,18.87
2019-06-26T21:58:06.001Z,18.83
2019-06-26T22:00:36.757Z,18.81
2019-06-26T22:03:06.608Z,18.77
2019-06-26T22:05:37.859Z,18.81
2019-06-26T22:08:07.760Z,17.76
2019-06-26T22:10:37.429Z,18.81
2019-06-26T22:13:07.773Z,18.75
2019-06-26T22:15:37.540Z,18.77
2019-06-26T22:18:07.308Z,18.71
2019-06-26T22:20:37.413Z,18.74
2019-06-26T22:23:07.165Z,18.72
2019-06-26T22:25:49.916Z,18.69
2019-06-26T22:28:08.407Z,18.70
2019-06-26T22:30:38.001Z,18.70
2019-06-26T22:33:07.704Z,18.67
2019-06-26T22:35:37.468Z,18.66
2019-06-26T22:38:07.161Z,18.68
2019-06-26T22:40:36.676Z,18.65
2019-06-26T22:43:06.478Z,18.66
2019-06-26T22:45:36.178Z,18.69
2019-06-26T22:48:06.003Z,18.72
2019-06-26T22:50:35.701Z,18.48
2019-06-26T22:53:05.463Z,18.67
2019-06-26T22:55:35.264Z,18.61
2019-06-26T22:58:05.450Z,18.57
2019-06-26T23:00:35.143Z,18.57
2019-06-26T23:03:05.052Z,18.52
2019-06-26T23:05:35.003Z,18.49
2019-06-26T23:08:04.769Z,18.48
2019-06-26T23:10:39.033Z,18.43
2019-06-26T23:13:09.821Z,18.43
2019-06-26T23:15:48.439Z,18.48
2019-06-26T23:18:22.602Z,18.51
2019-06-26T23:20:54.038Z,18.50
2019-06-26T23:23:25.874Z,18.45
2019-06-26T23:25:57.655Z,18.41
2019-06-26T23:28:30.814Z,18.40
2019-06-26T23:31:02.377Z,18.41
2019-06-26T23:33:34.369Z,18.39
2019-06-26T23:36:04.586Z,18.38
2019-06-26T23:38:44.019Z,18.34
2019-06-26T23:41:17.983Z,18.29
2019-06-26T23:43:53.088Z,18.26
2019-06-26T23:46:40.329Z,18.23
2019-06-26T23:49:18.455Z,18.21
2019-06-26T23:51:55.200Z,18.15
2019-06-26T23:54:33.116Z,18.15
2019-06-26T23:57:29.259Z,18.14
